createdAt,value
2023-04-01T00:00:13.473Z,15.25
2023-04-01T00:01:19.035Z,16.10
2023-04-01T00:02:22.583Z,16.05
2023-04-01T00:03:32.101Z,17.95
2023-04-01T00:04:35.052Z,18.00
2023-04-01T00:05:39.628Z,18.45
2023-04-01T00:06:43.885Z,17.13
2023-04-01T00:07:48.182Z,18.42
2023-04-01T00:08:54.560Z,21.58
2023-04-01T00:10:00.025Z,16.20
2023-04-01T00:11:07.249Z,19.25
2023-04-01T00:12:10.042Z,20.15
2023-04-01T00:13:15.992Z,14.57
2023-04-01T00:14:24.207Z,17.20
2023-04-01T00:15:28.287Z,18.47
2023-04-01T00:16:32.747Z,17.90
2023-04-01T00:17:36.151Z,24.90
2023-04-01T00:18:45.190Z,17.45
2023-04-01T00:19:47.855Z,20.92
2023-04-01T00:20:58.713Z,19.63
2023-04-01T00:22:02.613Z,24.58
2023-04-01T00:23:07.128Z,23.42
2023-04-01T00:24:10.715Z,17.90
2023-04-01T00:25:18.510Z,20.05
2023-04-01T00:26:27.667Z,21.50
2023-04-01T00:27:31.772Z,20.55
2023-04-01T00:28:37.261Z,19.63
2023-04-01T00:29:42.955Z,20.50
2023-04-01T00:30:47.005Z,18.58
2023-04-01T00:31:50.435Z,22.52
2023-04-01T00:32:55.687Z,21.35
2023-04-01T00:34:01.215Z,20.10
2023-04-01T00:35:05.418Z,22.40
2023-04-01T00:36:10.964Z,22.45
2023-04-01T00:37:15.562Z,19.00
2023-04-01T00:38:20.028Z,20.38
2023-04-01T00:39:24.291Z,19.17
2023-04-01T00:40:30.339Z,23.90
2023-04-01T00:41:34.383Z,18.38
2023-04-01T00:42:37.112Z,14.43
2023-04-01T00:43:40.905Z,18.08
2023-04-01T00:44:44.452Z,19.80
2023-04-01T00:45:49.661Z,21.15
2023-04-01T00:46:53.882Z,18.38
2023-04-01T00:48:01.234Z,17.97
2023-04-01T00:49:05.814Z,20.90
2023-04-01T00:50:11.357Z,17.75
2023-04-01T00:51:20.128Z,20.65
2023-04-01T00:52:27.092Z,23.08
2023-04-01T00:53:32.776Z,20.50
2023-04-01T00:54:37.446Z,21.15
2023-04-01T00:55:56.762Z,16.60
2023-04-01T00:57:03.223Z,23.52
2023-04-01T00:58:09.618Z,16.30
2023-04-01T00:59:17.410Z,14.07
2023-04-01T01:00:22.528Z,18.80
2023-04-01T01:01:36.525Z,18.55
2023-04-01T01:02:42.408Z,22.85
2023-04-01T01:03:48.726Z,16.38
2023-04-01T01:04:54.712Z,15.85
2023-04-01T01:06:10.029Z,18.73
2023-04-01T01:07:29.822Z,18.38
2023-04-01T01:08:47.881Z,25.05
2023-04-01T01:10:04.132Z,17.42
2023-04-01T01:11:12.880Z,19.47
2023-04-01T01:12:26.774Z,17.70
2023-04-01T01:13:49.088Z,23.30
2023-04-01T01:15:04.481Z,24.52
2023-04-01T01:16:18.651Z,18.30
2023-04-01T01:17:32.008Z,19.52
2023-04-01T01:18:40.405Z,18.52
2023-04-01T01:20:12.759Z,16.73
2023-04-01T01:21:44.398Z,21.17
2023-04-01T01:23:02.202Z,21.70
2023-04-01T01:24:32.677Z,17.47
2023-04-01T01:25:42.568Z,17.80
2023-04-01T01:27:04.714Z,13.55
2023-04-01T01:28:29.273Z,21.27
2023-04-01T01:30:01.213Z,18.58
2023-04-01T01:31:15.345Z,21.10
2023-04-01T01:32:40.641Z,23.17
2023-04-01T01:34:13.330Z,16.70
2023-04-01T01:35:25.598Z,21.77
2023-04-01T01:36:35.836Z,18.27
2023-04-01T01:37:43.217Z,22.43
2023-04-01T01:38:48.803Z,21.98
2023-04-01T01:40:00.069Z,21.15
2023-04-01T01:41:06.786Z,18.50
2023-04-01T01:42:13.370Z,18.45
2023-04-01T01:43:23.449Z,22.60
2023-04-01T01:44:30.004Z,20.25
2023-04-01T01:45:48.520Z,18.30
2023-04-01T01:47:02.227Z,17.45
2023-04-01T01:48:17.546Z,20.77
2023-04-01T01:49:31.538Z,20.13
2023-04-01T01:50:37.757Z,24.58
2023-04-01T01:51:44.389Z,16.05
2023-04-01T01:53:04.663Z,28.50
2023-04-01T01:54:08.450Z,22.08
2023-04-01T01:55:30.101Z,18.55
2023-04-01T01:56:37.697Z,21.52
2023-04-01T01:57:46.307Z,18.75
2023-04-01T01:58:54.476Z,18.77
2023-04-01T02:00:14.134Z,22.85
2023-04-01T02:01:30.826Z,21.80
2023-04-01T02:02:38.605Z,19.95
2023-04-01T02:03:44.862Z,24.08
2023-04-01T02:04:48.584Z,19.70
2023-04-01T02:05:57.854Z,21.50
2023-04-01T02:07:04.827Z,20.40
2023-04-01T02:08:22.759Z,22.77
2023-04-01T02:09:28.262Z,19.05
2023-04-01T02:10:39.941Z,18.27
2023-04-01T02:11:52.371Z,17.67
2023-04-01T02:13:07.975Z,19.03
2023-04-01T02:14:23.848Z,18.55
2023-04-01T02:15:39.000Z,16.88
2023-04-01T02:16:57.610Z,20.67
2023-04-01T02:18:08.175Z,20.30
2023-04-01T02:19:15.661Z,19.25
2023-04-01T02:20:31.284Z,18.88
2023-04-01T02:21:39.321Z,17.85
2023-04-01T02:22:48.464Z,21.27
2023-04-01T02:23:57.082Z,18.70
2023-04-01T02:25:11.966Z,23.17
2023-04-01T02:26:27.746Z,19.73
2023-04-01T02:27:40.085Z,24.05
2023-04-01T02:28:46.069Z,19.17
2023-04-01T02:29:53.735Z,18.02
2023-04-01T02:30:58.246Z,20.67
2023-04-01T02:32:02.086Z,21.65
2023-04-01T02:33:07.900Z,18.90
2023-04-01T02:34:12.456Z,24.77
2023-04-01T02:35:21.162Z,21.35
2023-04-01T02:36:25.701Z,19.63
2023-04-01T02:37:33.986Z,23.30
2023-04-01T02:38:39.232Z,19.30
2023-04-01T02:39:43.787Z,16.52
2023-04-01T02:40:51.983Z,21.10
2023-04-01T02:41:57.382Z,21.88
2023-04-01T02:43:01.355Z,21.38
2023-04-01T02:44:05.228Z,21.17
2023-04-01T02:45:11.276Z,18.48
2023-04-01T02:46:13.877Z,19.10
2023-04-01T02:47:17.696Z,19.10
2023-04-01T02:48:25.529Z,19.17
2023-04-01T02:49:29.655Z,23.50
2023-04-01T02:50:33.208Z,19.20
2023-04-01T02:51:40.059Z,21.65
2023-04-01T02:52:50.962Z,18.13
2023-04-01T02:53:56.929Z,18.25
2023-04-01T02:55:01.289Z,21.63
2023-04-01T02:56:13.720Z,21.40
2023-04-01T02:57:17.238Z,21.98
2023-04-01T02:58:23.141Z,19.73
2023-04-01T02:59:26.977Z,22.08
2023-04-01T03:00:32.408Z,15.73
2023-04-01T03:01:45.870Z,18.95
2023-04-01T03:02:51.513Z,21.85
2023-04-01T03:03:55.544Z,26.55
2023-04-01T03:05:00.714Z,17.08
2023-04-01T03:06:11.855Z,17.35
2023-04-01T03:07:19.701Z,22.10
2023-04-01T03:08:30.243Z,20.65
2023-04-01T03:09:32.794Z,17.60
2023-04-01T03:10:36.230Z,19.08
2023-04-01T03:11:42.376Z,16.90
2023-04-01T03:12:46.082Z,19.75
2023-04-01T03:13:49.905Z,21.92
2023-04-01T03:14:53.751Z,18.20
2023-04-01T03:15:57.615Z,16.65
2023-04-01T03:17:04.086Z,24.60
2023-04-01T03:18:10.376Z,21.58
2023-04-01T03:19:17.656Z,15.48
2023-04-01T03:20:26.010Z,22.20
2023-04-01T03:21:31.440Z,20.92
2023-04-01T03:22:41.426Z,19.98
2023-04-01T03:23:49.772Z,19.98
2023-04-01T03:24:52.398Z,23.00
2023-04-01T03:25:56.733Z,21.30
2023-04-01T03:27:00.002Z,20.27
2023-04-01T03:28:14.382Z,20.83
2023-04-01T03:29:17.364Z,20.48
2023-04-01T03:30:22.364Z,21.67
2023-04-01T03:31:32.091Z,16.23
2023-04-01T03:32:36.093Z,20.58
2023-04-01T03:33:41.296Z,18.25
2023-04-01T03:34:44.866Z,22.13
2023-04-01T03:35:53.329Z,19.48
2023-04-01T03:37:00.832Z,20.08
2023-04-01T03:38:08.356Z,28.85
2023-04-01T03:39:19.798Z,23.88
2023-04-01T03:40:23.690Z,21.13
2023-04-01T03:41:28.788Z,18.33
2023-04-01T03:42:33.862Z,21.73
2023-04-01T03:43:38.805Z,18.40
2023-04-01T03:44:51.455Z,19.88
2023-04-01T03:45:58.602Z,22.52
2023-04-01T03:47:01.607Z,18.55
2023-04-01T03:48:07.711Z,22.08
2023-04-01T03:49:12.805Z,19.98
2023-04-01T03:50:16.704Z,23.77
2023-04-01T03:51:20.086Z,21.75
2023-04-01T03:52:24.024Z,21.55
2023-04-01T03:53:28.127Z,22.47
2023-04-01T03:54:33.302Z,21.52
2023-04-01T03:55:38.106Z,19.83
2023-04-01T03:56:43.412Z,22.42
2023-04-01T03:57:46.106Z,15.70
2023-04-01T03:58:55.716Z,20.50
2023-04-01T03:59:58.593Z,25.20
2023-04-01T04:01:02.710Z,22.98
2023-04-01T04:02:05.351Z,21.83
2023-04-01T04:03:10.002Z,25.50
2023-04-01T04:04:14.181Z,23.27
2023-04-01T04:05:18.143Z,23.27
2023-04-01T04:06:21.201Z,31.38
2023-04-01T04:07:24.771Z,24.08
2023-04-01T04:08:35.301Z,22.17
2023-04-01T04:09:40.832Z,21.75
2023-04-01T04:10:47.573Z,21.02
2023-04-01T04:11:52.043Z,20.55
2023-04-01T04:12:58.197Z,23.27
2023-04-01T04:14:00.829Z,20.70
2023-04-01T04:15:04.649Z,23.50
2023-04-01T04:16:08.545Z,25.25
2023-04-01T04:17:17.339Z,21.67
2023-04-01T04:18:20.954Z,20.80
2023-04-01T04:19:26.029Z,20.70
2023-04-01T04:20:28.436Z,26.95
2023-04-01T04:21:32.756Z,21.80
2023-04-01T04:22:35.414Z,21.10
2023-04-01T04:23:39.334Z,19.73
2023-04-01T04:24:43.210Z,21.83
2023-04-01T04:25:56.057Z,17.03
2023-04-01T04:26:59.512Z,26.70
2023-04-01T04:28:02.073Z,26.75
2023-04-01T04:29:05.561Z,22.65
2023-04-01T04:30:10.379Z,21.45
2023-04-01T04:31:13.965Z,24.15
2023-04-01T04:32:16.331Z,17.85
2023-04-01T04:33:20.420Z,23.75
2023-04-01T04:34:23.503Z,24.83
2023-04-01T04:35:26.981Z,20.15
2023-04-01T04:36:29.339Z,23.60
2023-04-01T04:37:32.805Z,23.05
2023-04-01T04:38:35.404Z,27.00
2023-04-01T04:39:39.324Z,16.85
2023-04-01T04:40:44.115Z,23.40
2023-04-01T04:41:47.770Z,24.30
2023-04-01T04:42:50.198Z,17.65
2023-04-01T04:43:56.041Z,28.58
2023-04-01T04:44:58.628Z,22.75
2023-04-01T04:46:02.035Z,22.95
2023-04-01T04:47:04.617Z,23.57
2023-04-01T04:48:10.251Z,22.30
2023-04-01T04:49:12.726Z,23.00
2023-04-01T04:50:16.524Z,26.75
2023-04-01T04:51:20.689Z,23.45
2023-04-01T04:52:24.057Z,23.98
2023-04-01T04:53:27.307Z,24.48
2023-04-01T04:54:31.917Z,24.15
2023-04-01T04:55:34.463Z,25.13
2023-04-01T04:56:39.426Z,19.42
2023-04-01T04:57:42.698Z,23.57
2023-04-01T04:58:46.309Z,23.50
2023-04-01T04:59:48.609Z,21.67
2023-04-01T05:00:52.179Z,23.05
2023-04-01T05:01:54.631Z,26.67
2023-04-01T05:02:58.086Z,26.75
2023-04-01T05:04:00.789Z,24.35
2023-04-01T05:05:04.393Z,22.40
2023-04-01T05:06:08.355Z,24.52
2023-04-01T05:07:12.177Z,27.27
2023-04-01T05:08:14.854Z,21.40
2023-04-01T05:09:18.760Z,30.83
2023-04-01T05:10:22.005Z,23.58
2023-04-01T05:11:27.150Z,24.25
2023-04-01T05:12:31.067Z,25.48
2023-04-01T05:13:34.557Z,25.80
2023-04-01T05:14:37.246Z,27.67
2023-04-01T05:15:40.715Z,21.10
2023-04-01T05:16:43.391Z,25.70
2023-04-01T05:17:47.330Z,29.50
2023-04-01T05:18:49.748Z,22.77
2023-04-01T05:19:53.185Z,23.60
2023-04-01T05:20:56.828Z,27.13
2023-04-01T05:22:00.567Z,27.42
2023-04-01T05:23:03.272Z,26.02
2023-04-01T05:24:10.765Z,19.73
2023-04-01T05:25:13.234Z,20.17
2023-04-01T05:26:17.443Z,26.00
2023-04-01T05:27:19.851Z,19.98
2023-04-01T05:28:25.056Z,21.10
2023-04-01T05:29:28.128Z,24.80
2023-04-01T05:30:31.692Z,24.33
2023-04-01T05:31:35.008Z,24.52
2023-04-01T05:32:39.017Z,20.13
2023-04-01T05:33:41.602Z,21.13
2023-04-01T05:34:45.508Z,25.98
2023-04-01T05:35:48.390Z,25.38
2023-04-01T05:36:51.771Z,17.38
2023-04-01T05:37:54.378Z,26.13
2023-04-01T05:38:58.084Z,22.40
2023-04-01T05:40:00.710Z,20.37
2023-04-01T05:41:06.046Z,22.17
2023-04-01T05:42:09.937Z,23.40
2023-04-01T05:43:12.824Z,22.27
2023-04-01T05:44:18.573Z,20.20
2023-04-01T05:45:22.489Z,23.48
2023-04-01T05:46:27.568Z,24.23
2023-04-01T05:47:30.141Z,26.05
2023-04-01T05:48:36.038Z,25.00
2023-04-01T05:49:38.742Z,26.23
2023-04-01T05:50:44.150Z,22.53
2023-04-01T05:51:47.385Z,20.25
2023-04-01T05:52:51.374Z,20.20
2023-04-01T05:53:54.267Z,25.35
2023-04-01T05:54:58.262Z,20.33
2023-04-01T05:56:04.908Z,23.02
2023-04-01T05:57:08.663Z,27.35
2023-04-01T05:58:11.809Z,21.67
2023-04-01T05:59:15.612Z,27.38
2023-04-01T06:00:21.084Z,27.17
2023-04-01T06:01:24.853Z,23.87
2023-04-01T06:02:27.384Z,20.83
2023-04-01T06:03:31.061Z,22.50
2023-04-01T06:04:38.914Z,21.73
2023-04-01T06:05:44.433Z,26.45
2023-04-01T06:06:47.186Z,24.35
2023-04-01T06:07:51.026Z,20.77
2023-04-01T06:08:54.020Z,20.20
2023-04-01T06:09:57.579Z,27.50
2023-04-01T06:11:14.831Z,25.83
2023-04-01T06:12:51.092Z,20.63
2023-04-01T06:14:14.574Z,23.77
2023-04-01T06:15:37.034Z,19.48
2023-04-01T06:16:53.370Z,21.25
2023-04-01T06:18:29.214Z,21.42
2023-04-01T06:19:42.966Z,18.55
2023-04-01T06:20:55.763Z,25.13
2023-04-01T06:22:31.953Z,23.92
2023-04-01T06:23:55.642Z,22.67
2023-04-01T06:25:33.114Z,21.83
2023-04-01T06:26:40.854Z,23.87
2023-04-01T06:28:02.462Z,17.13
2023-04-01T06:29:39.767Z,20.25
2023-04-01T06:30:47.954Z,21.30
2023-04-01T06:32:24.413Z,22.38
2023-04-01T06:33:36.799Z,20.48
2023-04-01T06:35:04.478Z,19.70
2023-04-01T06:36:26.363Z,22.00
2023-04-01T06:37:53.190Z,18.35
2023-04-01T06:39:12.531Z,22.83
2023-04-01T06:40:38.189Z,31.23
2023-04-01T06:41:59.223Z,25.27
2023-04-01T06:43:14.746Z,15.50
2023-04-01T06:44:26.732Z,25.80
2023-04-01T06:45:38.347Z,23.88
2023-04-01T06:46:48.419Z,22.00
2023-04-01T06:48:16.880Z,26.85
2023-04-01T06:49:34.512Z,22.10
2023-04-01T06:50:57.291Z,23.13
2023-04-01T06:52:12.145Z,23.55
2023-04-01T06:53:19.520Z,19.47
2023-04-01T06:54:28.402Z,22.65
2023-04-01T06:55:39.008Z,19.80
2023-04-01T06:56:47.644Z,22.17
2023-04-01T06:57:54.157Z,20.77
2023-04-01T06:59:03.511Z,22.40
2023-04-01T07:00:13.722Z,27.23
2023-04-01T07:01:23.275Z,25.00
2023-04-01T07:02:34.927Z,24.17
2023-04-01T07:03:42.846Z,20.02
2023-04-01T07:04:51.205Z,21.10
2023-04-01T07:05:55.460Z,19.70
2023-04-01T07:07:02.365Z,24.83
2023-04-01T07:08:07.657Z,20.63
2023-04-01T07:09:17.415Z,25.70
2023-04-01T07:10:24.694Z,22.00
2023-04-01T07:11:32.357Z,22.70
2023-04-01T07:12:43.473Z,23.60
2023-04-01T07:13:53.656Z,22.75
2023-04-01T07:14:58.757Z,20.02
2023-04-01T07:16:13.320Z,20.20
2023-04-01T07:17:18.874Z,26.42
2023-04-01T07:18:31.030Z,21.40
2023-04-01T07:19:39.962Z,25.48
2023-04-01T07:20:42.492Z,24.70
2023-04-01T07:21:50.546Z,24.77
2023-04-01T07:22:56.187Z,24.95
2023-04-01T07:24:06.739Z,26.73
2023-04-01T07:25:15.145Z,30.25
2023-04-01T07:26:21.908Z,19.55
2023-04-01T07:27:26.108Z,19.27
2023-04-01T07:28:33.085Z,25.52
2023-04-01T07:29:36.934Z,23.15
2023-04-01T07:30:51.951Z,23.05
2023-04-01T07:32:15.373Z,20.90
2023-04-01T07:33:38.836Z,24.02
2023-04-01T07:34:51.849Z,21.85
2023-04-01T07:36:00.195Z,27.98
2023-04-01T07:37:12.352Z,23.40
2023-04-01T07:38:29.324Z,18.70
2023-04-01T07:39:42.494Z,22.73
2023-04-01T07:40:53.668Z,24.10
2023-04-01T07:42:04.061Z,20.45
2023-04-01T07:43:32.882Z,22.33
2023-04-01T07:44:47.176Z,24.60
2023-04-01T07:45:58.182Z,25.73
2023-04-01T07:47:23.585Z,24.58
2023-04-01T07:48:35.079Z,20.48
2023-04-01T07:49:49.001Z,25.25
2023-04-01T07:51:02.874Z,23.08
2023-04-01T07:52:12.475Z,20.87
2023-04-01T07:53:25.582Z,22.88
2023-04-01T07:54:41.637Z,27.02
2023-04-01T07:55:50.285Z,20.15
2023-04-01T07:57:04.172Z,25.23
2023-04-01T07:58:16.554Z,26.17
2023-04-01T07:59:29.104Z,27.65
2023-04-01T08:00:40.636Z,24.50
2023-04-01T08:01:52.979Z,22.75
2023-04-01T08:03:19.470Z,24.38
2023-04-01T08:04:39.507Z,20.40
2023-04-01T08:05:49.277Z,23.00
2023-04-01T08:07:00.603Z,29.58
2023-04-01T08:08:15.344Z,18.65
2023-04-01T08:09:25.596Z,19.17
2023-04-01T08:10:38.054Z,22.13
2023-04-01T08:12:00.301Z,27.58
2023-04-01T08:13:15.844Z,23.25
2023-04-01T08:14:26.283Z,19.20
2023-04-01T08:15:36.375Z,34.33
2023-04-01T08:16:47.100Z,23.87
2023-04-01T08:18:04.149Z,20.92
2023-04-01T08:19:18.405Z,27.23
2023-04-01T08:20:32.954Z,26.10
2023-04-01T08:21:45.118Z,24.13
2023-04-01T08:22:53.087Z,24.17
2023-04-01T08:23:59.740Z,30.10
2023-04-01T08:25:07.827Z,24.08
2023-04-01T08:26:17.698Z,23.25
2023-04-01T08:27:26.783Z,28.15
2023-04-01T08:28:34.868Z,25.80
2023-04-01T08:29:45.443Z,18.20
2023-04-01T08:30:54.823Z,24.33
2023-04-01T08:32:02.123Z,22.27
2023-04-01T08:33:13.024Z,29.30
2023-04-01T08:34:20.831Z,26.95
2023-04-01T08:35:35.544Z,27.10
2023-04-01T08:36:45.904Z,28.38
2023-04-01T08:37:49.837Z,20.48
2023-04-01T08:38:57.096Z,24.30
2023-04-01T08:40:04.382Z,23.70
2023-04-01T08:41:39.560Z,24.05
2023-04-01T08:42:58.025Z,29.98
2023-04-01T08:44:21.692Z,27.92
2023-04-01T08:45:47.644Z,29.52
2023-04-01T08:47:10.821Z,25.13
2023-04-01T08:48:30.442Z,21.67
2023-04-01T08:50:04.094Z,25.98
2023-04-01T08:51:23.100Z,24.25
2023-04-01T08:52:36.368Z,23.70
2023-04-01T08:54:14.368Z,21.70
2023-04-01T08:55:54.515Z,22.13
2023-04-01T08:57:01.868Z,31.20
2023-04-01T08:58:40.965Z,30.75
2023-04-01T08:59:59.849Z,23.83
2023-04-01T09:01:16.223Z,22.70
2023-04-01T09:02:49.662Z,28.10
2023-04-01T09:04:16.219Z,28.30
2023-04-01T09:06:01.018Z,22.02
2023-04-01T09:07:21.362Z,21.25
2023-04-01T09:08:41.505Z,23.03
2023-04-01T09:10:33.064Z,28.30
2023-04-01T09:11:58.136Z,30.73
2023-04-01T09:13:29.549Z,27.58
2023-04-01T09:15:02.010Z,23.52
2023-04-01T09:16:30.153Z,23.77
2023-04-01T09:17:53.654Z,25.42
2023-04-01T09:19:24.018Z,20.52
2023-04-01T09:20:49.997Z,19.23
2023-04-01T09:22:25.066Z,21.27
2023-04-01T09:24:08.749Z,25.53
2023-04-01T09:25:49.228Z,30.50
2023-04-01T09:27:07.696Z,26.70
2023-04-01T09:28:16.931Z,19.48
2023-04-01T09:29:34.840Z,18.90
2023-04-01T09:31:12.259Z,21.58
2023-04-01T09:32:55.667Z,20.75
2023-04-01T09:34:25.617Z,24.75
2023-04-01T09:35:42.333Z,25.45
2023-04-01T09:36:52.697Z,18.30
2023-04-01T09:38:14.621Z,26.87
2023-04-01T09:39:37.944Z,21.42
2023-04-01T09:40:51.359Z,21.27
2023-04-01T09:42:07.441Z,22.80
2023-04-01T09:43:42.333Z,21.13
2023-04-01T09:44:54.080Z,24.45
2023-04-01T09:46:21.814Z,29.08
2023-04-01T09:47:43.824Z,24.65
2023-04-01T09:49:26.125Z,21.08
2023-04-01T09:50:42.573Z,24.45
2023-04-01T09:51:56.954Z,29.63
2023-04-01T09:53:13.075Z,24.40
2023-04-01T09:54:30.076Z,29.15
2023-04-01T09:56:04.681Z,21.73
2023-04-01T09:57:31.448Z,21.33
2023-04-01T09:59:12.879Z,20.98
2023-04-01T10:00:52.291Z,24.70
2023-04-01T10:02:17.808Z,26.70
2023-04-01T10:03:57.851Z,24.17
2023-04-01T10:05:57.375Z,20.15
2023-04-01T10:07:42.607Z,17.80
2023-04-01T10:09:22.051Z,21.15
2023-04-01T10:11:02.112Z,24.58
2023-04-01T10:12:34.022Z,21.25
2023-04-01T10:14:12.808Z,24.10
2023-04-01T10:15:52.937Z,19.83
2023-04-01T10:17:40.045Z,16.10
2023-04-01T10:19:15.720Z,22.63
2023-04-01T10:20:54.034Z,22.65
2023-04-01T10:22:36.375Z,17.88
2023-04-01T10:24:12.480Z,15.80
2023-04-01T10:25:41.350Z,15.35
2023-04-01T10:27:09.511Z,16.85
2023-04-01T10:28:51.853Z,15.95
2023-04-01T10:30:17.672Z,16.73
2023-04-01T10:31:52.451Z,21.75
2023-04-01T10:33:32.918Z,20.52
2023-04-01T10:35:21.014Z,18.88
2023-04-01T10:36:53.759Z,17.45
2023-04-01T10:38:42.084Z,20.48
2023-04-01T10:40:34.073Z,16.53
2023-04-01T10:42:23.137Z,20.83
2023-04-01T10:43:57.422Z,18.90
2023-04-01T10:45:50.773Z,17.10
2023-04-01T10:47:27.879Z,21.17
2023-04-01T10:49:05.435Z,17.73
2023-04-01T10:50:50.871Z,18.35
2023-04-01T10:52:31.778Z,13.40
2023-04-01T10:53:48.510Z,21.40
2023-04-01T10:55:07.066Z,18.42
2023-04-01T10:56:41.449Z,14.43
2023-04-01T10:58:11.847Z,20.60
2023-04-01T11:00:00.169Z,18.67
2023-04-01T11:01:54.934Z,17.73
2023-04-01T11:03:38.619Z,21.88
2023-04-01T11:05:21.124Z,21.92
2023-04-01T11:07:11.590Z,19.50
2023-04-01T11:08:56.412Z,19.17
2023-04-01T11:10:33.084Z,21.30
2023-04-01T11:11:57.049Z,20.40
2023-04-01T11:13:39.799Z,16.00
2023-04-01T11:15:02.957Z,18.00
2023-04-01T11:16:41.969Z,18.65
2023-04-01T11:18:36.491Z,15.77
2023-04-01T11:20:16.475Z,14.77
2023-04-01T11:21:58.635Z,18.58
2023-04-01T11:23:21.139Z,17.35
2023-04-01T11:24:43.649Z,19.20
2023-04-01T11:26:08.215Z,15.48
2023-04-01T11:27:27.762Z,16.95
2023-04-01T11:29:04.280Z,19.50
2023-04-01T11:30:20.313Z,16.88
2023-04-01T11:31:37.690Z,17.52
2023-04-01T11:32:55.363Z,15.10
2023-04-01T11:34:09.352Z,19.42
2023-04-01T11:35:36.141Z,15.70
2023-04-01T11:36:55.734Z,16.27
2023-04-01T11:38:08.808Z,18.63
2023-04-01T11:39:26.840Z,18.25
2023-04-01T11:40:36.912Z,18.08
2023-04-01T11:41:48.497Z,16.17
2023-04-01T11:42:57.668Z,18.10
2023-04-01T11:44:18.465Z,18.15
2023-04-01T11:45:36.412Z,13.38
2023-04-01T11:46:52.186Z,14.70
2023-04-01T11:48:17.038Z,17.58
2023-04-01T11:49:39.110Z,18.20
2023-04-01T11:51:00.242Z,16.80
2023-04-01T11:52:24.045Z,15.93
2023-04-01T11:53:39.020Z,14.82
2023-04-01T11:54:59.995Z,18.20
2023-04-01T11:56:17.245Z,17.98
2023-04-01T11:57:41.269Z,19.00
2023-04-01T11:59:13.957Z,17.60
2023-04-01T12:00:31.508Z,16.10
2023-04-01T12:01:54.410Z,19.92
2023-04-01T12:03:16.353Z,17.08
2023-04-01T12:04:55.867Z,19.13
2023-04-01T12:06:07.756Z,13.73
2023-04-01T12:07:21.050Z,17.08
2023-04-01T12:08:37.677Z,17.57
2023-04-01T12:09:52.684Z,15.68
2023-04-01T12:11:03.607Z,19.50
2023-04-01T12:12:20.501Z,12.90
2023-04-01T12:13:35.098Z,18.83
2023-04-01T12:14:46.216Z,18.42
2023-04-01T12:16:06.925Z,17.75
2023-04-01T12:17:30.090Z,17.88
2023-04-01T12:18:41.539Z,16.73
2023-04-01T12:19:54.950Z,19.48
2023-04-01T12:21:02.876Z,19.30
2023-04-01T12:22:39.768Z,19.70
2023-04-01T12:24:00.818Z,20.08
2023-04-01T12:25:24.341Z,19.77
2023-04-01T12:26:55.445Z,16.48
2023-04-01T12:28:17.990Z,15.98
2023-04-01T12:29:46.100Z,20.58
2023-04-01T12:31:01.786Z,16.38
2023-04-01T12:32:17.306Z,16.00
2023-04-01T12:33:47.071Z,19.10
2023-04-01T12:35:05.000Z,17.93
2023-04-01T12:36:21.585Z,19.33
2023-04-01T12:37:34.852Z,16.45
2023-04-01T12:38:46.833Z,13.82
2023-04-01T12:40:19.906Z,15.95
2023-04-01T12:41:32.528Z,14.77
2023-04-01T12:42:54.360Z,17.10
2023-04-01T12:44:12.318Z,17.60
2023-04-01T12:45:37.303Z,16.70
2023-04-01T12:47:08.899Z,15.93
2023-04-01T12:48:39.910Z,21.97
2023-04-01T12:50:08.431Z,14.93
2023-04-01T12:51:32.200Z,15.55
2023-04-01T12:52:49.867Z,16.10
2023-04-01T12:54:36.606Z,16.02
2023-04-01T12:55:44.190Z,13.70
2023-04-01T12:57:01.564Z,14.80
2023-04-01T12:58:43.528Z,20.63
2023-04-01T13:00:17.447Z,19.77
2023-04-01T13:02:00.363Z,16.90
2023-04-01T13:03:29.993Z,14.37
2023-04-01T13:05:03.898Z,13.00
2023-04-01T13:06:32.212Z,15.88
2023-04-01T13:07:55.465Z,17.00
2023-04-01T13:09:08.027Z,10.85
2023-04-01T13:10:22.468Z,17.50
2023-04-01T13:11:38.768Z,15.32
2023-04-01T13:13:01.823Z,11.50
2023-04-01T13:14:40.165Z,13.07
2023-04-01T13:15:47.774Z,12.50
2023-04-01T13:16:59.337Z,16.50
2023-04-01T13:18:17.234Z,15.80
2023-04-01T13:19:28.321Z,13.77
2023-04-01T13:20:48.927Z,13.73
2023-04-01T13:22:00.137Z,14.80
2023-04-01T13:23:11.501Z,14.95
2023-04-01T13:24:27.153Z,14.13
2023-04-01T13:25:40.906Z,14.25
2023-04-01T13:26:56.506Z,12.93
2023-04-01T13:28:06.046Z,14.30
2023-04-01T13:29:16.210Z,11.43
2023-04-01T13:30:27.610Z,14.10
2023-04-01T13:31:52.149Z,13.70
2023-04-01T13:33:03.034Z,16.13
2023-04-01T13:34:25.338Z,12.73
2023-04-01T13:35:39.327Z,13.15
2023-04-01T13:36:54.329Z,14.07
2023-04-01T13:38:10.953Z,13.77
2023-04-01T13:39:37.762Z,14.93
2023-04-01T13:41:03.039Z,9.98
2023-04-01T13:42:16.345Z,14.83
2023-04-01T13:43:24.800Z,11.93
2023-04-01T13:44:37.294Z,10.60
2023-04-01T13:45:51.501Z,16.35
2023-04-01T13:47:30.899Z,12.55
2023-04-01T13:49:12.689Z,12.07
2023-04-01T13:50:38.210Z,15.25
2023-04-01T13:52:01.812Z,11.35
2023-04-01T13:53:34.411Z,11.32
2023-04-01T13:55:01.711Z,14.05
2023-04-01T13:56:26.909Z,14.87
2023-04-01T13:57:44.822Z,12.80
2023-04-01T13:59:12.668Z,13.50
2023-04-01T14:00:41.150Z,15.57
2023-04-01T14:01:52.575Z,11.30
2023-04-01T14:03:43.978Z,12.57
2023-04-01T14:05:00.899Z,14.40
2023-04-01T14:06:30.849Z,10.05
2023-04-01T14:07:51.492Z,12.02
2023-04-01T14:09:18.238Z,13.68
2023-04-01T14:10:28.950Z,8.67
2023-04-01T14:11:38.307Z,10.05
2023-04-01T14:12:50.403Z,10.23
2023-04-01T14:14:03.655Z,9.85
2023-04-01T14:15:26.464Z,12.32
2023-04-01T14:16:55.400Z,14.60
2023-04-01T14:18:26.536Z,14.70
2023-04-01T14:19:51.985Z,11.63
2023-04-01T14:21:07.646Z,14.50
2023-04-01T14:22:24.656Z,12.45
2023-04-01T14:23:50.667Z,10.87
2023-04-01T14:25:26.290Z,14.50
2023-04-01T14:26:56.114Z,11.15
2023-04-01T14:28:10.466Z,13.85
2023-04-01T14:29:27.335Z,13.63
2023-04-01T14:30:53.692Z,10.95
2023-04-01T14:32:09.213Z,13.65
2023-04-01T14:33:22.437Z,14.18
2023-04-01T14:34:41.217Z,15.48
2023-04-01T14:35:51.710Z,16.30
2023-04-01T14:37:13.798Z,15.03
2023-04-01T14:38:29.858Z,17.45
2023-04-01T14:39:52.390Z,13.88
2023-04-01T14:41:01.296Z,16.60
2023-04-01T14:42:24.694Z,17.10
2023-04-01T14:43:47.628Z,16.00
2023-04-01T14:45:11.971Z,21.52
2023-04-01T14:46:46.501Z,18.02
2023-04-01T14:47:55.165Z,19.17
2023-04-01T14:49:02.065Z,18.55
2023-04-01T14:50:11.905Z,14.43
2023-04-01T14:51:21.486Z,18.77
2023-04-01T14:52:29.848Z,16.63
2023-04-01T14:53:39.850Z,17.27
2023-04-01T14:54:45.209Z,16.17
2023-04-01T14:55:52.853Z,21.45
2023-04-01T14:57:13.693Z,19.73
2023-04-01T14:58:19.377Z,17.45
2023-04-01T14:59:30.133Z,14.68
2023-04-01T15:00:48.645Z,15.68
2023-04-01T15:02:00.935Z,19.10
2023-04-01T15:03:14.400Z,16.33
2023-04-01T15:04:44.601Z,15.05
2023-04-01T15:05:51.746Z,18.98
2023-04-01T15:07:12.024Z,16.05
2023-04-01T15:08:23.353Z,18.88
2023-04-01T15:09:40.031Z,16.88
2023-04-01T15:11:10.878Z,18.05
2023-04-01T15:12:22.659Z,16.58
2023-04-01T15:13:52.145Z,14.88
2023-04-01T15:15:14.338Z,15.77
2023-04-01T15:16:25.260Z,12.90
2023-04-01T15:17:49.774Z,17.60
2023-04-01T15:19:03.395Z,11.98
2023-04-01T15:20:38.379Z,14.98
2023-04-01T15:21:52.878Z,15.25
2023-04-01T15:23:24.020Z,17.13
2023-04-01T15:24:40.517Z,15.57
2023-04-01T15:26:11.125Z,14.57
2023-04-01T15:27:26.515Z,12.93
2023-04-01T15:28:37.455Z,15.23
2023-04-01T15:30:11.720Z,12.57
2023-04-01T15:31:19.052Z,15.85
2023-04-01T15:32:30.211Z,13.50
2023-04-01T15:33:50.446Z,14.27
2023-04-01T15:35:02.144Z,13.85
2023-04-01T15:36:18.076Z,16.48
2023-04-01T15:37:29.845Z,12.40
2023-04-01T15:38:44.131Z,16.63
2023-04-01T15:39:59.801Z,13.60
2023-04-01T15:41:12.006Z,15.30
2023-04-01T15:42:39.053Z,14.93
2023-04-01T15:43:44.908Z,14.63
2023-04-01T15:45:01.254Z,14.27
2023-04-01T15:46:22.918Z,17.35
2023-04-01T15:47:39.199Z,16.15
2023-04-01T15:49:00.892Z,13.30
2023-04-01T15:50:29.095Z,16.00
2023-04-01T15:51:49.526Z,13.68
2023-04-01T15:53:02.213Z,14.10
2023-04-01T15:54:28.287Z,14.77
2023-04-01T15:55:37.983Z,16.10
2023-04-01T15:57:02.198Z,14.68
2023-04-01T15:58:34.700Z,15.27
2023-04-01T16:00:03.113Z,12.65
2023-04-01T16:01:16.161Z,14.98
2023-04-01T16:02:26.071Z,17.83
2023-04-01T16:03:40.427Z,17.50
2023-04-01T16:04:57.059Z,16.40